createdAt,value
2023-05-19T10:07:44.479Z,3.10
2023-05-19T10:10:17.535Z,3.40
2023-05-19T10:12:50.146Z,3.50
2023-05-19T10:15:23.343Z,3.60
2023-05-19T10:17:56.618Z,3.40
2023-05-19T10:20:29.321Z,3.30
2023-05-19T10:23:02.918Z,3.30
2023-05-19T10:25:36.722Z,4.00
2023-05-19T10:28:14.953Z,3.90
2023-05-19T10:30:50.838Z,3.30
2023-05-19T10:33:30.126Z,3.30
2023-05-19T10:36:26.617Z,3.40
2023-05-19T10:39:06.892Z,3.40
2023-05-19T10:41:47.219Z,2.90
2023-05-19T10:44:29.691Z,3.10
2023-05-19T10:47:01.872Z,3.90
2023-05-19T10:49:37.588Z,5.20
2023-05-19T10:52:22.915Z,7.00
2023-05-19T10:54:55.084Z,3.70
2023-05-19T10:57:31.900Z,3.60
2023-05-19T11:00:11.751Z,4.20
2023-05-19T11:02:44.993Z,4.60
2023-05-19T11:05:19.583Z,4.00
2023-05-19T11:08:02.008Z,4.00
2023-05-19T11:10:34.663Z,4.00
2023-05-19T11:13:06.891Z,3.50
2023-05-19T11:15:39.216Z,4.00
2023-05-19T11:18:13.826Z,4.00
2023-05-19T11:20:57.971Z,4.00
2023-05-19T11:23:35.534Z,3.70
2023-05-19T11:26:10.071Z,4.40
2023-05-19T11:28:42.824Z,4.60
2023-05-19T11:31:15.224Z,4.40
2023-05-19T11:33:47.104Z,4.90
2023-05-19T11:36:21.722Z,5.80
2023-05-19T11:38:54.092Z,4.20
2023-05-19T11:41:30.500Z,4.50
2023-05-19T11:44:02.326Z,4.60
2023-05-19T11:46:34.245Z,3.50
2023-05-19T11:49:08.248Z,3.40
2023-05-19T11:51:40.331Z,4.60
2023-05-19T11:54:12.677Z,4.90
2023-05-19T11:56:44.632Z,4.70
2023-05-19T11:59:16.665Z,5.10
2023-05-19T12:01:48.386Z,4.20
2023-05-19T12:04:21.860Z,3.60
2023-05-19T12:06:54.451Z,4.20
2023-05-19T12:11:57.463Z,5.20
2023-05-19T12:14:32.347Z,4.60
2023-05-19T12:17:13.324Z,4.20
2023-05-19T12:19:46.189Z,3.60
2023-05-19T12:22:19.033Z,4.10
2023-05-19T12:24:52.687Z,4.00
2023-05-19T12:27:27.451Z,4.30
2023-05-19T12:30:00.045Z,3.60
2023-05-19T12:32:34.463Z,3.60
2023-05-19T12:35:08.125Z,3.90
2023-05-19T12:37:44.246Z,3.70
2023-05-19T12:40:17.910Z,4.70
2023-05-19T12:42:52.091Z,4.00
2023-05-19T12:45:25.861Z,5.30
2023-05-19T12:47:58.025Z,4.60
2023-05-19T12:50:34.375Z,4.70
2023-05-19T12:53:11.682Z,5.20
2023-05-19T12:55:44.913Z,4.20
2023-05-19T12:58:18.023Z,5.40
2023-05-19T13:00:50.541Z,4.40
2023-05-19T13:03:23.006Z,4.60
2023-05-19T13:05:55.354Z,5.10
2023-05-19T13:08:28.002Z,11.00
2023-05-19T13:13:30.520Z,5.50
2023-05-19T13:16:02.270Z,5.70
2023-05-19T13:18:36.252Z,4.10
2023-05-19T13:21:08.206Z,3.80
2023-05-19T13:23:40.316Z,2.00
2023-05-19T13:26:13.289Z,3.10
2023-05-19T13:28:44.990Z,2.90
2023-05-19T13:31:16.968Z,3.20
2023-05-19T13:33:48.754Z,3.20
2023-05-19T13:36:20.496Z,2.70
2023-05-19T13:38:52.158Z,3.50
2023-05-19T13:41:29.921Z,5.90
2023-05-19T13:44:01.906Z,3.10
2023-05-19T13:46:44.617Z,3.30
2023-05-19T13:49:18.243Z,3.40
2023-05-19T13:51:49.934Z,3.70
2023-05-19T13:54:21.696Z,3.20
2023-05-19T13:56:53.427Z,4.80
2023-05-19T13:59:26.400Z,3.40
2023-05-19T14:01:58.280Z,3.60
2023-05-19T14:04:30.139Z,3.40
2023-05-19T14:07:01.825Z,3.90
2023-05-19T14:09:34.131Z,4.30
2023-05-19T14:12:07.264Z,3.90
2023-05-19T14:14:39.436Z,4.00
2023-05-19T14:17:11.333Z,3.80
2023-05-19T14:19:43.182Z,5.60
2023-05-19T14:22:14.943Z,5.70
2023-05-19T14:24:46.717Z,4.30
2023-05-19T14:27:18.534Z,4.60
2023-05-19T14:29:50.437Z,4.30
2023-05-19T14:32:22.888Z,3.60
2023-05-19T14:34:54.731Z,3.00
2023-05-19T14:37:29.216Z,4.50
2023-05-19T14:40:01.449Z,4.00
2023-05-19T14:42:33.168Z,3.70
2023-05-19T14:45:05.023Z,3.70
2023-05-19T14:47:36.871Z,3.90
2023-05-19T14:50:09.662Z,3.30
2023-05-19T14:55:12.065Z,3.60
2023-05-19T14:57:43.893Z,3.60
2023-05-19T15:00:17.670Z,4.00
2023-05-19T15:02:50.440Z,3.00
2023-05-19T15:05:22.891Z,3.10
2023-05-19T15:07:54.549Z,4.00
2023-05-19T15:10:26.450Z,3.50
2023-05-19T15:13:00.332Z,3.10
2023-05-19T15:15:32.318Z,2.90
2023-05-19T15:18:04.461Z,2.60
2023-05-19T15:20:36.393Z,2.90
2023-05-19T15:23:08.389Z,3.00
2023-05-19T15:25:40.585Z,3.20
2023-05-19T15:28:13.486Z,3.10
2023-05-19T15:30:45.928Z,3.20
2023-05-19T15:33:17.918Z,3.60
2023-05-19T15:35:52.101Z,3.60
2023-05-19T15:38:26.125Z,3.50
2023-05-19T15:40:58.781Z,3.20
2023-05-19T15:43:31.051Z,3.20
2023-05-19T15:46:04.922Z,3.00
2023-05-19T15:48:36.885Z,3.80
2023-05-19T15:51:08.794Z,4.50
2023-05-19T15:53:40.503Z,2.40
2023-05-19T15:56:13.373Z,3.50
2023-05-19T15:58:45.091Z,3.00
2023-05-19T16:01:17.794Z,3.40
2023-05-19T16:06:20.512Z,2.70
2023-05-19T16:08:52.264Z,3.50
2023-05-19T16:11:24.896Z,4.00
2023-05-19T16:16:27.337Z,4.30
2023-05-19T16:19:00.424Z,4.70
2023-05-19T16:21:32.742Z,5.90
2023-05-19T16:24:04.570Z,3.30
2023-05-19T16:26:36.418Z,4.60
2023-05-19T16:29:08.206Z,5.20
2023-05-19T16:31:40.004Z,5.30
2023-05-19T16:34:12.228Z,5.20
2023-05-19T16:36:43.929Z,4.30
2023-05-19T16:39:15.786Z,4.10
2023-05-19T16:41:48.227Z,5.00
2023-05-19T16:44:19.953Z,5.00
2023-05-19T16:46:51.697Z,7.90
2023-05-19T16:49:23.511Z,5.30
2023-05-19T16:51:55.806Z,5.30
2023-05-19T16:54:29.198Z,4.30
2023-05-19T16:57:01.347Z,4.70
2023-05-19T16:59:33.427Z,4.90
2023-05-19T17:02:05.484Z,4.60
2023-05-19T17:04:37.265Z,4.70
2023-05-19T17:07:09.987Z,5.10
2023-05-19T17:09:41.996Z,4.80
2023-05-19T17:12:13.992Z,3.90
2023-05-19T17:14:45.733Z,4.70
2023-05-19T17:17:17.711Z,5.00
2023-05-19T17:19:49.572Z,4.90
2023-05-19T17:22:21.438Z,4.70
2023-05-19T17:24:53.512Z,4.70
2023-05-19T17:27:25.288Z,3.00
2023-05-19T17:29:57.066Z,5.00
2023-05-19T17:32:35.697Z,4.90
2023-05-19T17:35:09.043Z,5.70
2023-05-19T17:37:40.867Z,5.40
2023-05-19T17:40:14.904Z,3.70
2023-05-19T17:42:46.878Z,4.80
2023-05-19T17:45:18.834Z,5.90
2023-05-19T17:47:51.492Z,5.90
2023-05-19T17:52:54.430Z,5.50
2023-05-19T17:58:02.786Z,5.10
2023-05-19T18:03:07.976Z,5.10
2023-05-19T18:05:43.131Z,5.30
2023-05-19T18:08:16.630Z,5.50
2023-05-19T18:10:51.561Z,5.70
2023-05-19T18:13:23.669Z,5.40
2023-05-19T18:15:57.106Z,4.80
2023-05-19T18:18:29.401Z,5.20
2023-05-19T18:21:01.534Z,5.50
2023-05-19T18:23:33.635Z,5.00
2023-05-19T18:26:05.339Z,5.20
2023-05-19T18:28:37.112Z,4.80
2023-05-19T18:31:15.573Z,5.40
2023-05-19T18:33:48.701Z,5.30
2023-05-19T18:36:21.197Z,5.50
2023-05-19T18:38:55.064Z,5.40
2023-05-19T18:41:27.188Z,5.90
2023-05-19T18:43:59.357Z,6.00
2023-05-19T18:46:31.127Z,4.90
2023-05-19T18:49:03.808Z,5.50
2023-05-19T18:51:36.296Z,5.10
2023-05-19T18:54:08.404Z,5.60
2023-05-19T18:56:40.116Z,5.80
2023-05-19T18:59:12.390Z,5.00
2023-05-19T19:01:45.133Z,6.40
2023-05-19T19:04:18.217Z,5.50
2023-05-19T19:06:51.231Z,5.70
2023-05-19T19:09:22.913Z,6.00
2023-05-19T19:11:54.707Z,6.10
2023-05-19T19:14:26.573Z,5.90
2023-05-19T19:16:58.552Z,6.10
2023-05-19T19:19:30.949Z,6.20
2023-05-19T19:22:03.180Z,5.30
2023-05-19T19:24:34.959Z,6.00
2023-05-19T19:27:07.388Z,5.40
2023-05-19T19:29:39.277Z,5.80
2023-05-19T19:32:14.202Z,5.80
2023-05-19T19:34:46.121Z,6.50
2023-05-19T19:37:17.900Z,6.00
2023-05-19T19:39:49.806Z,5.60
2023-05-19T19:42:21.782Z,5.30
2023-05-19T19:44:57.009Z,5.80
2023-05-19T19:47:29.201Z,6.50
2023-05-19T19:50:05.500Z,6.50
2023-05-19T19:52:37.260Z,6.10
2023-05-19T19:55:10.977Z,4.90
2023-05-19T19:57:44.935Z,5.80
2023-05-19T20:00:19.851Z,6.40
2023-05-19T20:03:04.330Z,5.60
2023-05-19T20:05:39.481Z,6.10
2023-05-19T20:08:11.746Z,7.00
2023-05-19T20:10:44.246Z,6.10
2023-05-19T20:13:16.261Z,6.40
2023-05-19T20:15:48.814Z,6.20
2023-05-19T20:18:20.632Z,6.50
2023-05-19T20:20:52.411Z,5.60
2023-05-19T20:23:24.584Z,6.50
2023-05-19T20:26:11.077Z,5.70
2023-05-19T20:28:43.974Z,6.30
2023-05-19T20:31:15.630Z,6.20
2023-05-19T20:33:47.389Z,6.30
2023-05-19T20:36:19.109Z,6.20
2023-05-19T20:38:51.762Z,6.40
2023-05-19T20:41:23.520Z,6.40
2023-05-19T20:43:55.248Z,6.00
2023-05-19T20:46:26.993Z,6.20
2023-05-19T20:48:58.761Z,6.50
2023-05-19T20:51:30.505Z,6.10
2023-05-19T20:54:02.152Z,6.40
2023-05-19T20:56:33.838Z,6.50
2023-05-19T20:59:05.511Z,6.50
2023-05-19T21:01:37.348Z,6.70
2023-05-19T21:04:09.257Z,7.20
2023-05-19T21:06:41.059Z,7.10
2023-05-19T21:09:12.834Z,7.80
2023-05-19T21:11:45.884Z,7.10
2023-05-19T21:14:17.557Z,7.30
2023-05-19T21:16:53.809Z,7.40
2023-05-19T21:19:25.930Z,6.90
2023-05-19T21:21:57.903Z,7.20
2023-05-19T21:24:30.984Z,6.60
2023-05-19T21:27:03.133Z,6.60
2023-05-19T21:29:35.088Z,6.50
2023-05-19T21:32:08.165Z,6.90
2023-05-19T21:34:40.484Z,6.80
2023-05-19T21:37:12.294Z,6.60
2023-05-19T21:39:44.218Z,7.10
2023-05-19T21:42:16.128Z,7.20
2023-05-19T21:44:47.857Z,7.80
2023-05-19T21:47:19.880Z,7.60
2023-05-19T21:49:51.751Z,7.10
2023-05-19T21:52:23.494Z,7.40
2023-05-19T21:54:56.122Z,7.40
2023-05-19T21:57:27.900Z,7.60
2023-05-19T21:59:59.676Z,6.90
2023-05-19T22:02:31.324Z,7.20
2023-05-19T22:05:03.144Z,7.10
2023-05-19T22:07:35.038Z,7.40
2023-05-19T22:10:08.187Z,5.00
2023-05-19T22:12:40.083Z,8.70
2023-05-19T22:15:15.718Z,6.90
2023-05-19T22:17:47.457Z,7.30
2023-05-19T22:20:19.394Z,7.90
2023-05-19T22:22:51.143Z,7.10
2023-05-19T22:25:23.079Z,7.70
2023-05-19T22:27:55.020Z,5.10
2023-05-19T22:30:27.157Z,8.30
2023-05-19T22:32:58.862Z,7.80
2023-05-19T22:35:30.756Z,8.20
2023-05-19T22:38:02.375Z,7.50
2023-05-19T22:40:34.890Z,6.20
2023-05-19T22:43:06.729Z,8.30
2023-05-19T22:45:39.212Z,9.30
2023-05-19T22:48:11.601Z,8.60
2023-05-19T22:50:43.392Z,8.60
2023-05-19T22:53:15.157Z,9.00
2023-05-19T22:55:47.577Z,8.00
2023-05-19T22:58:19.322Z,9.30
2023-05-19T23:00:51.352Z,8.10
2023-05-19T23:03:23.006Z,8.10
2023-05-19T23:05:55.213Z,9.30
2023-05-19T23:08:27.173Z,9.90
2023-05-19T23:11:03.165Z,8.30
2023-05-19T23:13:34.821Z,8.80
2023-05-19T23:16:07.627Z,8.70
2023-05-19T23:21:09.338Z,9.20
2023-05-19T23:23:41.094Z,8.30
2023-05-19T23:26:14.235Z,8.60
2023-05-19T23:28:45.942Z,7.90
2023-05-19T23:31:17.927Z,8.70
2023-05-19T23:33:49.760Z,9.00
2023-05-19T23:36:21.720Z,9.30
2023-05-19T23:38:53.469Z,9.60
2023-05-19T23:41:25.663Z,9.50
2023-05-19T23:43:57.254Z,9.10
2023-05-19T23:46:28.933Z,9.70
2023-05-19T23:49:00.626Z,8.80
2023-05-19T23:51:32.283Z,10.40
2023-05-19T23:54:03.874Z,9.10
2023-05-19T23:56:35.526Z,9.70
2023-05-19T23:59:07.135Z,10.60
